EW4117 Gor ES current weather conditions

sailwx.info

Wind from 272

Air temperature 4.4° C
Dewpoint 0.4° C

Last reported at 2020-Jan-17 19:47 UTC.
Time now 2020-Jan-17 20:20 UTC

Location: N 37°22' W 002°59'.
View on Google Maps.

See reports from other nearby stations

  
Tides and Currents Weather Stations Pressure Air Temp Water Temp Dewpoint Dewpoint Depression Visibility Wind Speed Wind Dir Waves Ship Positions
date/time (UTC)wind fromknots sea level pressurealtimeterstation pressurevisibilityair tempwater tempwave heightnotes
2020-Jan-17 19:47 272 4.4
2020-Jan-17 19:32 198 0 gusting 1 4.4
2020-Jan-17 19:02 214 0 gusting 2 5.0
2020-Jan-17 18:47 155 0 gusting 1 5.0
2020-Jan-17 18:32 231 5.0
2020-Jan-17 18:18 167 1 gusting 4 5.6
2020-Jan-17 18:01 111 1 gusting 3 5.6
2020-Jan-17 17:49 037 2 gusting 6 6.1
2020-Jan-17 17:31 029 2 gusting 5 6.1
2020-Jan-17 17:16 018 1 gusting 5 6.7
2020-Jan-17 17:02 295 8.9
2020-Jan-17 16:46 293 0 gusting 1 8.9
2020-Jan-17 16:31 273 8.9
2020-Jan-17 16:17 308 0 gusting 2 9.4
2020-Jan-17 16:01 294 1 gusting 5 10.0
2020-Jan-17 15:46 226 2 gusting 5 10.0
2020-Jan-17 15:31 313 1 gusting 4 10.0
2020-Jan-17 15:16 256 2 gusting 4 10.0
2020-Jan-17 15:01 259 4 gusting 7 10.0
2020-Jan-17 14:46 252 4 gusting 7 10.0
2020-Jan-17 14:31 302 2 gusting 6 10.0
2020-Jan-17 14:16 294 3 gusting 7 9.4
2020-Jan-17 14:01 247 3 gusting 6 10.0
2020-Jan-17 13:45 215 2 gusting 6 9.4
2020-Jan-17 13:31 240 3 gusting 7 9.4
2020-Jan-17 13:15 291 1 gusting 6 8.9
2020-Jan-17 13:00 280 1 gusting 7 8.9
2020-Jan-17 12:45 268 3 gusting 7 8.9
2020-Jan-17 12:31 255 4 gusting 8 8.9
2020-Jan-17 12:15 308 6 gusting 11 8.9
2020-Jan-17 12:00 326 3 gusting 9 8.9
2020-Jan-17 11:46 283 5 gusting 9 8.3
2020-Jan-17 11:30 299 3 gusting 9 8.3
2020-Jan-17 11:15 309 2 gusting 9 7.8
2020-Jan-17 11:00 265 4 gusting 9 7.8
2020-Jan-17 10:46 269 2 gusting 5 7.2
2020-Jan-17 10:30 223 2 gusting 5 7.2
2020-Jan-17 10:15 236 6 gusting 10 6.7
2020-Jan-17 10:00 231 6 gusting 10 6.7
2020-Jan-17 09:45 239 6 gusting 11 6.7
2020-Jan-17 09:32 264 6 gusting 9 7.2
2020-Jan-17 09:16 228 4 gusting 6 6.7
2020-Jan-17 09:04 259 3 gusting 6 6.7
2020-Jan-17 08:46 236 2 gusting 8 6.1
2020-Jan-17 08:31 224 4 gusting 7 5.6
2020-Jan-17 08:16 217 4 gusting 8 5.0
2020-Jan-17 08:01 210 3 gusting 6 5.0
2020-Jan-17 07:48 191 4 gusting 6 4.4
2020-Jan-17 07:31 193 3 gusting 5 4.4
2020-Jan-17 07:17 214 0 gusting 2 5.0
2020-Jan-17 07:01 226 1 gusting 3 5.0
2020-Jan-17 06:46 215 1 gusting 4 5.0
2020-Jan-17 06:31 199 0 gusting 0 5.0
2020-Jan-17 06:16 258 5.6
2020-Jan-17 06:01 246 5.6
2020-Jan-17 05:46 225 1 gusting 4 5.0
2020-Jan-17 05:30 206 1 gusting 3 5.0
2020-Jan-17 05:16 188 1 gusting 4 4.4
2020-Jan-17 05:01 169 2 gusting 3 4.4
2020-Jan-17 04:46 160 1 gusting 3 3.9
2020-Jan-17 04:31 158 1 gusting 3 3.9
2020-Jan-17 04:16 146 3.9
2020-Jan-17 04:01 137 1 gusting 4 3.9
2020-Jan-17 03:46 194 0 gusting 2 3.3
2020-Jan-17 03:31 167 1 gusting 5 3.3
2020-Jan-17 03:15 169 1 gusting 3 3.9
2020-Jan-17 03:01 113 1 gusting 2 3.9
2020-Jan-17 02:45 197 4.4
2020-Jan-17 02:30 142 5 gusting 8 3.9
2020-Jan-17 02:15 198 3 gusting 5 3.3
2020-Jan-17 02:00 212 2 gusting 5 4.4
2020-Jan-17 01:45 246 2 gusting 6 3.9
2020-Jan-17 01:30 229 0 gusting 5 3.9
2020-Jan-17 01:16 205 2 gusting 4 3.9
2020-Jan-17 01:00 231 4.4
2020-Jan-17 00:45 294 4.4
2020-Jan-17 00:30 239 5.0
2020-Jan-17 00:01 137 5.0
2020-Jan-16 23:46 142 2 gusting 3 5.0
2020-Jan-16 23:32 159 4.4
2020-Jan-16 23:17 162 1 gusting 4 4.4
2020-Jan-16 23:04 201 1 gusting 3 4.4
2020-Jan-16 22:46 200 2 gusting 4 4.4
2020-Jan-16 22:34 199 0 gusting 2 5.0
2020-Jan-16 22:16 155 1 gusting 3 4.4
2020-Jan-16 21:46 182 1 gusting 2 4.4
2020-Jan-16 21:32 219 1 gusting 3 4.4
2020-Jan-16 21:16 201 1 gusting 3 3.9
2020-Jan-16 21:01 169 0 gusting 2 3.9
2020-Jan-16 20:47 184 1 gusting 2 4.4
2020-Jan-16 20:32 214 0 gusting 2 4.4
2020-Jan-16 20:16 175 5.0
2020-Jan-16 20:01 297 5.6
2020-Jan-16 19:46 205 1 gusting 3 6.1
2020-Jan-16 19:31 207 3 gusting 6 6.1
2020-Jan-16 19:15 217 3 gusting 6 6.1
2020-Jan-16 19:00 224 3 gusting 5 6.1
2020-Jan-16 18:46 224 2 gusting 6 6.1
2020-Jan-16 18:31 247 2 gusting 6 6.1
2020-Jan-16 18:16 214 1 gusting 4 6.1
2020-Jan-16 18:01 200 1 gusting 3 5.6
2020-Jan-16 17:46 216 1 gusting 2 5.6
2020-Jan-16 17:31 205 0 gusting 2 6.7
2020-Jan-16 17:16 216 0 gusting 2 7.2
2020-Jan-16 17:01 262 0 gusting 3 8.3
2020-Jan-16 16:45 306 0 gusting 4 9.4
2020-Jan-16 16:30 300 1 gusting 3 9.4
2020-Jan-16 16:15 323 1 gusting 4 9.4
2020-Jan-16 16:00 311 2 gusting 6 10.0
2020-Jan-16 15:45 297 3 gusting 6 10.0
2020-Jan-16 15:31 300 2 gusting 7 10.0
2020-Jan-16 15:16 245 0 gusting 5 10.0
2020-Jan-16 15:00 283 2 gusting 8 10.0
2020-Jan-16 14:46 320 4 gusting 7 9.4
2020-Jan-16 14:30 353 9.4
2020-Jan-16 14:15 309 4 gusting 7 9.4
2020-Jan-16 14:01 294 0 gusting 7 9.4
2020-Jan-16 13:45 300 2 gusting 6 9.4
2020-Jan-16 13:30 300 2 gusting 5 10.0
2020-Jan-16 13:15 317 3 gusting 8 9.4
2020-Jan-16 13:00 280 3 gusting 9 9.4
2020-Jan-16 12:45 229 1 gusting 5 10.0
2020-Jan-16 12:30 334 2 gusting 10 9.4
2020-Jan-16 12:15 039 3 gusting 11 8.9
2020-Jan-16 12:02 351 4 gusting 8 8.9
2020-Jan-16 11:48 037 0 gusting 6 8.9
2020-Jan-16 11:31 294 8.3
2020-Jan-16 11:16 321 3 gusting 6 7.8
2020-Jan-16 11:01 324 2 gusting 6 7.8
2020-Jan-16 10:47 001 0 gusting 4 7.8
2020-Jan-16 10:31 336 2 gusting 4 7.2
2020-Jan-16 10:16 019 2 gusting 4 7.2
2020-Jan-16 10:01 335 2 gusting 3 6.7
2020-Jan-16 09:46 354 6.7
2020-Jan-16 09:31 307 6.7
2020-Jan-16 09:16 323 1 gusting 2 6.7
2020-Jan-16 09:01 136 6.7
2020-Jan-16 08:31 220 4.4
2020-Jan-16 08:17 211 0 gusting 3 3.3
2020-Jan-16 08:01 110 0 gusting 6 3.9
2020-Jan-16 07:46 143 6 gusting 8 3.3
2020-Jan-16 07:31 149 4 gusting 6 3.3
2020-Jan-16 07:16 153 6 gusting 7 3.3
2020-Jan-16 07:00 149 5 gusting 6 3.3
2020-Jan-16 06:46 154 5 gusting 6 3.3
2020-Jan-16 06:30 143 3 gusting 5 3.3
2020-Jan-16 06:16 150 2 gusting 4 3.9
2020-Jan-16 06:01 148 2 gusting 4 3.9
2020-Jan-16 05:46 146 2 gusting 5 3.9
2020-Jan-16 05:30 153 2 gusting 3 3.9
2020-Jan-16 05:15 155 3 gusting 5 3.9
2020-Jan-16 05:01 157 3 gusting 4 3.9
2020-Jan-16 04:46 154 3 gusting 4 3.9
2020-Jan-16 04:30 152 3 gusting 5 3.9
2020-Jan-16 04:16 141 2 gusting 4 3.9
2020-Jan-16 04:00 143 3 gusting 5 3.9
2020-Jan-16 03:45 146 3 gusting 4 3.9
2020-Jan-16 03:30 156 2 gusting 4 3.9
2020-Jan-16 03:16 142 3 gusting 4 3.9
2020-Jan-16 03:00 152 3 gusting 5 3.3
2020-Jan-16 02:45 146 3 gusting 5 3.3
2020-Jan-16 02:30 154 3 gusting 4 3.9
2020-Jan-16 02:15 142 2 gusting 4 3.9
2020-Jan-16 02:00 143 2 gusting 4 3.3
2020-Jan-16 01:45 155 1 gusting 3 4.4
2020-Jan-16 01:30 159 1 gusting 3 3.9
2020-Jan-16 01:15 157 1 gusting 3 3.9
2020-Jan-16 01:00 153 1 gusting 4 4.4
2020-Jan-16 00:45 147 3 gusting 4 4.4
2020-Jan-16 00:34 154 3 gusting 5 3.9
2020-Jan-16 00:17 152 4 gusting 5 3.9
2020-Jan-16 00:02 153 3 gusting 4 3.9
2020-Jan-15 23:48 155 3 gusting 4 3.9
2020-Jan-15 23:32 155 2 gusting 5 4.4
2020-Jan-15 23:16 145 2 gusting 4 3.9
2020-Jan-15 23:01 156 3 gusting 4 4.4
2020-Jan-15 22:46 168 3 gusting 5 3.9
2020-Jan-15 22:31 152 3 gusting 5 4.4
2020-Jan-15 22:16 153 3 gusting 5 4.4
2020-Jan-15 22:01 156 3 gusting 5 3.9
2020-Jan-15 21:49 161 3 gusting 4 3.9
2020-Jan-15 21:31 155 2 gusting 4 4.4
2020-Jan-15 21:17 146 2 gusting 3 4.4
2020-Jan-15 21:01 140 1 gusting 3 4.4
2020-Jan-15 20:45 155 2 gusting 4 4.4
2020-Jan-15 20:31 147 2 gusting 3 5.0
2020-Jan-15 20:16 141 2 gusting 3 5.0
2020-Jan-15 20:02 109 0 gusting 2 5.0